Time;durP1;ratioP1;P1;durP2;ratioP2;P2;SDS_P1;SDS_P2;PMS_P1;PMS_P2;Temp;Humidity;BMP_temperature;BMP_pressure;BME280_temperature;BME280_humidity;BME280_pressure;Samples;Min_cycle;Max_cycle;Signal;HPM_P1;HPM_P2
2021/09/09 00:00:32;;;;;;;16.23;13.07;;;16.70;1.00;;;;;;5071017;28;20685;-61
2021/09/09 00:02:59;;;;;;;16.67;12.60;;;16.60;1.00;;;;;;5070498;28;20228;-61
2021/09/09 00:05:26;;;;;;;16.47;12.47;;;16.60;1.00;;;;;;5076154;28;20211;-61
2021/09/09 00:07:53;;;;;;;13.93;11.93;;;16.60;1.00;;;;;;5076166;28;20631;-61
2021/09/09 00:10:19;;;;;;;19.47;14.07;;;16.60;1.00;;;;;;5076649;28;20208;-61
2021/09/09 00:12:46;;;;;;;18.30;13.17;;;16.50;1.00;;;;;;5076056;28;20197;-63
2021/09/09 00:15:15;;;;;;;16.33;12.80;;;16.50;1.00;;;;;;5077174;28;20301;-61
2021/09/09 00:17:41;;;;;;;18.63;12.77;;;16.40;1.00;;;;;;5076097;28;20270;-62
2021/09/09 00:20:10;;;;;;;17.90;13.47;;;16.40;1.00;;;;;;5077131;28;20254;-62
2021/09/09 00:22:37;;;;;;;16.10;13.37;;;16.30;1.00;;;;;;5076251;28;20247;-62
2021/09/09 00:25:05;;;;;;;14.33;12.10;;;16.30;1.00;;;;;;5075963;28;20721;-61
2021/09/09 00:27:31;;;;;;;17.97;13.33;;;16.20;1.00;;;;;;5076640;28;20233;-62
2021/09/09 00:29:58;;;;;;;17.07;12.77;;;16.20;1.00;;;;;;5071383;28;20212;-61
2021/09/09 00:32:26;;;;;;;19.53;12.87;;;16.10;1.00;;;;;;5071300;28;20662;-61
2021/09/09 00:34:53;;;;;;;16.40;12.40;;;16.10;6.50;;;;;;5070334;28;20770;-61
2021/09/09 00:37:20;;;;;;;17.63;12.27;;;16.10;4.60;;;;;;5071400;28;20309;-61
2021/09/09 00:39:47;;;;;;;15.90;12.97;;;16.10;7.80;;;;;;5070849;28;20232;-61
2021/09/09 00:42:13;;;;;;;16.47;12.47;;;16.10;8.30;;;;;;5071157;28;20258;-61
2021/09/09 00:44:40;;;;;;;15.13;12.73;;;16.10;7.90;;;;;;5071946;28;20229;-61
2021/09/09 00:47:09;;;;;;;16.37;12.73;;;16.00;8.00;;;;;;5075278;28;20208;-61
2021/09/09 00:49:38;;;;;;;15.63;12.87;;;16.00;18.70;;;;;;5075104;28;20258;-61
2021/09/09 00:52:06;;;;;;;15.30;13.00;;;15.90;21.00;;;;;;5075538;28;20205;-61
2021/09/09 00:54:33;;;;;;;16.30;12.97;;;15.90;21.70;;;;;;5075358;28;20225;-61
2021/09/09 00:56:59;;;;;;;15.60;13.07;;;16.00;20.90;;;;;;5075142;28;20266;-61
2021/09/09 00:59:27;;;;;;;18.03;12.60;;;15.90;28.70;;;;;;5074475;28;20205;-61
2021/09/09 01:01:54;;;;;;;15.00;12.27;;;15.90;25.30;;;;;;5074457;28;20236;-61
2021/09/09 01:04:21;;;;;;;15.50;12.47;;;15.90;19.90;;;;;;5073558;28;20228;-61
2021/09/09 01:06:50;;;;;;;14.20;12.27;;;16.00;10.90;;;;;;5074875;28;20665;-61
2021/09/09 01:09:17;;;;;;;14.77;12.17;;;16.00;7.90;;;;;;5075025;28;20209;-61
2021/09/09 01:11:44;;;;;;;14.20;11.87;;;16.00;7.70;;;;;;5074893;28;20209;-61
2021/09/09 01:14:12;;;;;;;15.47;12.17;;;16.00;1.00;;;;;;5073667;28;20713;-61
2021/09/09 01:16:40;;;;;;;14.40;11.93;;;16.00;1.00;;;;;;5073731;28;20205;-61
2021/09/09 01:19:08;;;;;;;13.93;11.60;;;16.00;1.00;;;;;;5074481;28;20266;-61
2021/09/09 01:21:35;;;;;;;15.53;11.60;;;16.00;1.00;;;;;;5074879;28;20209;-61
2021/09/09 01:24:12;;;;;;;13.70;11.20;;;16.10;1.00;;;;;;5073905;28;20278;-61
2021/09/09 01:26:49;;;;;;;13.37;11.23;;;16.10;1.00;;;;;;5074459;28;20580;-61
2021/09/09 01:29:17;;;;;;;12.53;10.83;;;16.10;1.00;;;;;;5074284;28;20258;-61
2021/09/09 01:31:44;;;;;;;16.80;11.27;;;16.20;1.00;;;;;;5074795;28;20262;-61
2021/09/09 01:34:10;;;;;;;13.47;11.43;;;16.20;1.00;;;;;;5073551;28;20228;-61
2021/09/09 01:36:37;;;;;;;13.53;11.30;;;16.20;1.00;;;;;;5073313;28;20213;-62
2021/09/09 01:39:04;;;;;;;12.63;11.07;;;16.30;1.00;;;;;;5074083;28;20208;-62
2021/09/09 01:41:32;;;;;;;13.50;11.43;;;16.20;1.00;;;;;;5073860;28;20209;-62
2021/09/09 01:43:59;;;;;;;14.77;10.90;;;16.30;1.00;;;;;;5073271;28;20660;-62
2021/09/09 01:46:25;;;;;;;15.57;11.63;;;16.30;1.00;;;;;;5073068;28;20243;-62
2021/09/09 01:48:52;;;;;;;15.03;10.73;;;16.30;1.00;;;;;;5074442;28;20267;-62
2021/09/09 01:51:19;;;;;;;14.37;11.50;;;16.30;1.00;;;;;;5074003;28;20209;-62
2021/09/09 01:53:45;;;;;;;15.87;11.87;;;16.30;1.00;;;;;;5072404;28;20763;-62
2021/09/09 01:56:12;;;;;;;14.73;11.33;;;16.30;1.00;;;;;;5071926;28;20209;-61
2021/09/09 01:58:41;;;;;;;12.17;10.63;;;16.30;1.00;;;;;;5074078;28;20615;-61
2021/09/09 02:01:08;;;;;;;14.37;11.07;;;16.30;1.00;;;;;;5074011;28;20211;-62
2021/09/09 02:03:35;;;;;;;18.27;10.87;;;16.30;1.00;;;;;;5072468;28;20230;-62
2021/09/09 02:06:02;;;;;;;15.90;11.10;;;16.30;1.00;;;;;;5073243;28;20615;-62
2021/09/09 02:08:28;;;;;;;13.60;11.07;;;16.30;1.00;;;;;;5073283;28;20201;-61
2021/09/09 02:10:55;;;;;;;13.80;11.07;;;16.30;1.00;;;;;;5073395;28;20724;-61
2021/09/09 02:13:22;;;;;;;12.03;10.70;;;16.20;1.00;;;;;;5073849;28;20234;-61
2021/09/09 02:15:50;;;;;;;14.23;10.40;;;16.30;1.00;;;;;;5073841;28;20234;-62
2021/09/09 02:18:16;;;;;;;14.50;10.63;;;16.30;1.00;;;;;;5073013;28;20205;-61
2021/09/09 02:20:43;;;;;;;13.93;11.17;;;16.20;1.00;;;;;;5073366;28;20201;-61
2021/09/09 02:23:09;;;;;;;13.83;9.97;;;16.20;1.00;;;;;;5073517;28;20221;-61
2021/09/09 02:25:38;;;;;;;17.30;10.50;;;16.20;1.00;;;;;;5073151;28;20238;-62
2021/09/09 02:28:05;;;;;;;12.10;10.23;;;16.20;1.00;;;;;;5072770;28;20212;-61
2021/09/09 02:30:32;;;;;;;13.23;10.37;;;16.20;1.00;;;;;;5072974;28;20258;-61
2021/09/09 02:33:00;;;;;;;13.40;10.80;;;16.20;1.00;;;;;;5073276;28;20547;-61
2021/09/09 02:35:26;;;;;;;14.67;10.73;;;16.20;1.00;;;;;;5073001;28;20638;-62
2021/09/09 02:37:53;;;;;;;13.47;9.83;;;16.20;1.00;;;;;;5072195;28;20251;-61
2021/09/09 02:40:19;;;;;;;14.27;10.03;;;16.30;1.00;;;;;;5072840;28;20266;-61
2021/09/09 02:42:46;;;;;;;12.90;10.57;;;16.30;1.00;;;;;;5072321;28;20354;-61
2021/09/09 02:45:13;;;;;;;13.33;10.37;;;16.30;1.00;;;;;;5071988;28;20224;-61
2021/09/09 02:47:40;;;;;;;12.23;9.63;;;16.30;1.00;;;;;;5073043;28;20246;-61
2021/09/09 02:50:09;;;;;;;12.10;10.17;;;16.30;1.00;;;;;;5073158;28;20220;-61
2021/09/09 02:52:36;;;;;;;12.27;9.97;;;16.30;1.00;;;;;;5072715;28;20205;-61
2021/09/09 02:55:03;;;;;;;13.47;10.57;;;16.30;1.00;;;;;;5072797;28;20221;-61
2021/09/09 02:57:30;;;;;;;13.13;9.90;;;16.20;1.00;;;;;;5071889;28;20234;-61
2021/09/09 02:59:57;;;;;;;12.10;9.13;;;16.30;1.00;;;;;;5072744;28;20200;-62
2021/09/09 03:02:24;;;;;;;13.30;10.07;;;16.30;1.00;;;;;;5072472;28;20293;-61
2021/09/09 03:04:51;;;;;;;13.47;10.10;;;16.30;1.00;;;;;;5071905;28;20278;-61
2021/09/09 03:07:19;;;;;;;11.83;9.67;;;16.30;1.00;;;;;;5072520;28;20212;-62
2021/09/09 03:09:46;;;;;;;13.33;10.10;;;16.30;1.00;;;;;;5072622;28;20234;-61
2021/09/09 03:12:13;;;;;;;12.17;9.77;;;16.30;1.00;;;;;;5071340;28;20204;-62
2021/09/09 03:14:39;;;;;;;12.23;9.83;;;16.30;1.00;;;;;;5072155;28;20221;-62
2021/09/09 03:17:06;;;;;;;11.43;9.60;;;16.30;1.00;;;;;;5071512;28;20209;-61
2021/09/09 03:19:32;;;;;;;12.97;9.97;;;16.30;1.00;;;;;;5071524;28;20227;-62
2021/09/09 03:21:59;;;;;;;14.57;10.77;;;16.30;1.00;;;;;;5071927;28;20312;-61
2021/09/09 03:24:27;;;;;;;12.87;9.73;;;16.30;1.00;;;;;;5071434;28;20232;-62
2021/09/09 03:26:54;;;;;;;12.13;9.60;;;16.30;1.00;;;;;;5071918;28;20544;-61
2021/09/09 03:29:20;;;;;;;12.70;9.83;;;16.30;1.00;;;;;;5072252;28;20429;-62
2021/09/09 03:31:47;;;;;;;13.07;9.73;;;16.30;1.00;;;;;;5071501;28;20677;-62
2021/09/09 03:34:14;;;;;;;13.27;9.90;;;16.30;1.00;;;;;;5072038;28;20278;-62
2021/09/09 03:36:40;;;;;;;15.00;10.07;;;16.30;1.00;;;;;;5072099;28;20217;-62
2021/09/09 03:39:07;;;;;;;14.57;10.60;;;16.30;1.00;;;;;;5071634;28;20209;-62
2021/09/09 03:41:35;;;;;;;15.20;10.23;;;16.30;1.00;;;;;;5070844;28;20258;-61
2021/09/09 03:44:02;;;;;;;12.83;9.80;;;16.30;1.00;;;;;;5070758;28;20270;-61
2021/09/09 03:46:28;;;;;;;14.67;10.47;;;16.30;1.00;;;;;;5071153;28;20266;-62
2021/09/09 03:48:55;;;;;;;11.93;9.67;;;16.30;1.00;;;;;;5072247;28;20621;-61
2021/09/09 03:51:22;;;;;;;18.80;11.83;;;16.30;1.00;;;;;;5071849;28;20722;-62
2021/09/09 03:53:48;;;;;;;13.80;10.10;;;16.20;1.00;;;;;;5070693;28;20221;-61
2021/09/09 03:56:15;;;;;;;16.07;11.57;;;16.20;1.00;;;;;;5072119;28;20255;-62
2021/09/09 03:58:43;;;;;;;14.70;10.97;;;16.20;1.00;;;;;;5071810;28;20212;-61
2021/09/09 04:01:09;;;;;;;14.03;10.43;;;16.20;1.00;;;;;;5071072;28;20230;-62
2021/09/09 04:03:36;;;;;;;15.87;10.67;;;16.20;1.00;;;;;;5070677;28;20294;-62
2021/09/09 04:06:03;;;;;;;15.70;10.63;;;16.20;1.00;;;;;;5071671;28;20576;-61
2021/09/09 04:08:30;;;;;;;15.63;9.63;;;16.20;1.00;;;;;;5071650;28;20252;-61
2021/09/09 04:10:56;;;;;;;16.60;10.10;;;16.20;1.00;;;;;;5071132;28;20646;-62
2021/09/09 04:13:23;;;;;;;14.67;10.57;;;16.20;1.00;;;;;;5071218;28;20228;-62
2021/09/09 04:15:51;;;;;;;16.60;10.80;;;16.10;1.00;;;;;;5071879;28;20263;-62
2021/09/09 04:18:17;;;;;;;16.10;10.87;;;16.10;1.00;;;;;;5070916;28;20216;-62
2021/09/09 04:20:44;;;;;;;14.80;10.40;;;16.10;1.00;;;;;;5074700;28;20273;-62
2021/09/09 04:23:11;;;;;;;12.80;10.80;;;16.10;1.00;;;;;;5075803;28;20208;-62
2021/09/09 04:25:37;;;;;;;13.97;10.13;;;16.10;1.00;;;;;;5066584;28;20254;-61
2021/09/09 04:28:04;;;;;;;12.97;9.80;;;16.10;1.00;;;;;;5075785;28;20209;-61
2021/09/09 04:30:31;;;;;;;11.13;9.40;;;16.10;1.00;;;;;;5074772;28;20238;-61
2021/09/09 04:32:59;;;;;;;14.27;9.70;;;16.10;1.00;;;;;;5075946;28;20204;-61
2021/09/09 04:35:26;;;;;;;10.73;8.90;;;16.10;1.00;;;;;;5075338;28;20205;-61
2021/09/09 04:37:52;;;;;;;12.23;9.10;;;16.10;1.00;;;;;;5074782;28;20224;-61
2021/09/09 04:40:19;;;;;;;12.80;9.67;;;16.10;1.00;;;;;;5073317;28;20925;-62
2021/09/09 04:42:45;;;;;;;11.10;8.77;;;16.10;1.00;;;;;;5071075;28;20255;-62
2021/09/09 04:45:12;;;;;;;12.40;9.10;;;16.10;1.00;;;;;;5074234;28;20262;-62
2021/09/09 04:47:39;;;;;;;12.83;10.23;;;16.20;1.00;;;;;;5075452;28;20270;-62
2021/09/09 04:50:09;;;;;;;11.53;9.17;;;16.20;1.00;;;;;;5074656;28;20205;-62
2021/09/09 04:52:36;;;;;;;10.83;8.63;;;16.20;1.00;;;;;;5075107;28;20204;-61
2021/09/09 04:55:04;;;;;;;11.27;8.93;;;16.20;1.00;;;;;;5073735;28;20251;-61
2021/09/09 04:57:30;;;;;;;14.90;10.33;;;16.20;1.00;;;;;;5073527;28;20200;-61
2021/09/09 04:59:57;;;;;;;18.47;9.90;;;16.30;1.00;;;;;;5074712;28;20278;-61
2021/09/09 05:02:24;;;;;;;15.37;9.33;;;16.30;1.00;;;;;;5075087;28;20213;-61
2021/09/09 05:04:50;;;;;;;10.90;9.03;;;16.30;1.00;;;;;;5074020;28;20237;-61
2021/09/09 05:07:18;;;;;;;11.63;8.53;;;16.40;1.00;;;;;;5073347;28;20315;-59
2021/09/09 05:09:45;;;;;;;11.90;9.10;;;16.40;1.00;;;;;;5075101;28;20259;-61
2021/09/09 05:12:12;;;;;;;10.97;8.87;;;16.40;1.00;;;;;;5074493;28;20212;-61
2021/09/09 05:14:38;;;;;;;12.30;9.13;;;16.40;1.00;;;;;;5074079;28;20221;-61
2021/09/09 05:17:05;;;;;;;14.10;8.57;;;16.40;1.00;;;;;;5074129;28;20257;-61
2021/09/09 05:19:31;;;;;;;12.30;8.93;;;16.50;1.00;;;;;;5074511;28;20674;-61
2021/09/09 05:21:58;;;;;;;12.43;8.20;;;16.60;1.00;;;;;;5073814;28;20263;-61
2021/09/09 05:24:26;;;;;;;14.37;8.63;;;16.60;1.00;;;;;;5074223;28;20242;-61
2021/09/09 05:26:53;;;;;;;10.70;8.30;;;16.60;1.00;;;;;;5074565;28;20213;-61
2021/09/09 05:29:22;;;;;;;10.50;9.00;;;16.60;1.00;;;;;;5074951;28;20212;-61
2021/09/09 05:31:49;;;;;;;15.27;8.70;;;16.70;1.00;;;;;;5072882;28;20681;-60
2021/09/09 05:34:16;;;;;;;14.37;8.77;;;16.70;1.00;;;;;;5073862;28;20217;-62
2021/09/09 05:36:42;;;;;;;13.00;9.27;;;16.70;1.00;;;;;;5073764;28;20221;-61
2021/09/09 05:39:09;;;;;;;12.30;9.13;;;16.80;1.00;;;;;;5052366;28;20209;-60
2021/09/09 05:41:37;;;;;;;12.07;8.40;;;17.00;1.00;;;;;;5053925;28;20214;-61
2021/09/09 05:44:04;;;;;;;11.23;8.33;;;17.10;1.00;;;;;;5052830;28;20241;-61
2021/09/09 05:46:31;;;;;;;10.80;8.10;;;17.20;1.00;;;;;;5054129;28;20263;-61
2021/09/09 05:48:57;;;;;;;13.93;8.47;;;17.30;1.00;;;;;;5063175;28;20764;-61
2021/09/09 05:51:24;;;;;;;11.20;8.07;;;17.30;1.00;;;;;;5073548;28;20212;-63
2021/09/09 05:53:51;;;;;;;10.73;8.33;;;17.50;1.00;;;;;;5073151;28;20271;-63
2021/09/09 05:56:17;;;;;;;18.43;9.13;;;17.50;1.00;;;;;;5072902;28;20205;-63
2021/09/09 05:58:45;;;;;;;12.50;8.60;;;17.50;1.00;;;;;;5072482;28;20254;-63
2021/09/09 06:01:12;;;;;;;11.27;8.13;;;17.60;1.00;;;;;;5072512;28;20213;-64
2021/09/09 06:03:40;;;;;;;9.97;7.87;;;17.50;1.00;;;;;;5073276;28;20228;-64
2021/09/09 06:06:07;;;;;;;14.23;8.80;;;17.60;1.00;;;;;;5072560;28;20212;-64
2021/09/09 06:08:36;;;;;;;11.43;8.40;;;17.60;1.00;;;;;;5073052;28;20212;-64
2021/09/09 06:11:04;;;;;;;11.57;8.63;;;17.70;1.00;;;;;;5072311;28;20735;-61
2021/09/09 06:13:32;;;;;;;12.23;8.30;;;17.70;1.00;;;;;;5072495;28;20233;-62
2021/09/09 06:16:00;;;;;;;10.43;7.97;;;17.80;1.00;;;;;;5072399;28;20204;-61
2021/09/09 06:18:26;;;;;;;14.27;8.30;;;17.80;1.00;;;;;;5072989;28;20212;-61
2021/09/09 06:20:53;;;;;;;12.37;8.13;;;17.90;1.00;;;;;;5072783;28;20208;-61
2021/09/09 06:23:20;;;;;;;11.77;8.50;;;17.90;1.00;;;;;;5073220;28;20262;-61
2021/09/09 06:25:46;;;;;;;12.17;8.30;;;18.10;1.00;;;;;;5072247;28;20297;-61
2021/09/09 06:28:13;;;;;;;12.87;8.47;;;18.20;1.00;;;;;;5072058;28;20250;-62
2021/09/09 06:30:40;;;;;;;10.43;7.80;;;18.20;1.00;;;;;;5072120;28;20435;-64
2021/09/09 06:33:08;;;;;;;10.50;8.80;;;18.30;1.00;;;;;;5072365;28;20235;-63
2021/09/09 06:35:35;;;;;;;10.73;8.50;;;18.30;1.00;;;;;;5072328;28;20197;-63
2021/09/09 06:38:01;;;;;;;11.37;8.37;;;18.30;1.00;;;;;;5071425;28;20282;-65
2021/09/09 06:40:29;;;;;;;11.40;8.20;;;18.40;1.00;;;;;;5072894;28;20209;-64
2021/09/09 06:42:55;;;;;;;11.20;8.80;;;18.50;1.00;;;;;;5072577;28;20236;-64
2021/09/09 06:45:22;;;;;;;11.30;8.70;;;18.60;1.00;;;;;;5072430;28;20233;-63
2021/09/09 06:47:49;;;;;;;13.77;8.67;;;18.70;1.00;;;;;;5072356;28;20248;-63
2021/09/09 06:50:17;;;;;;;9.90;7.43;;;18.70;1.00;;;;;;5072622;28;20300;-66
2021/09/09 06:52:43;;;;;;;10.37;8.17;;;18.80;1.00;;;;;;5072806;28;20239;-63
2021/09/09 06:55:10;;;;;;;9.67;7.83;;;18.80;1.00;;;;;;5072581;28;20271;-63
2021/09/09 06:57:37;;;;;;;13.80;7.80;;;18.90;1.00;;;;;;5072478;28;20220;-65
2021/09/09 07:00:05;;;;;;;12.97;8.20;;;19.00;1.00;;;;;;5072120;28;20628;-65
2021/09/09 07:02:32;;;;;;;11.20;7.97;;;19.10;1.00;;;;;;5072172;28;20205;-65
2021/09/09 07:04:58;;;;;;;11.43;8.53;;;19.10;1.00;;;;;;5071935;28;20370;-64
2021/09/09 07:07:26;;;;;;;9.03;7.33;;;19.30;1.00;;;;;;5072292;28;20282;-64
2021/09/09 07:09:53;;;;;;;9.87;7.73;;;19.40;1.00;;;;;;5072248;28;20562;-64
2021/09/09 07:12:20;;;;;;;9.50;7.77;;;19.40;1.00;;;;;;5072452;28;20208;-64
2021/09/09 07:14:46;;;;;;;11.30;8.03;;;19.50;1.00;;;;;;5071962;28;20221;-62
2021/09/09 07:17:13;;;;;;;10.67;7.97;;;19.60;1.00;;;;;;5071784;28;20262;-63
2021/09/09 07:19:40;;;;;;;10.03;7.30;;;19.70;1.00;;;;;;5072132;28;20209;-63
2021/09/09 07:22:06;;;;;;;11.10;7.90;;;19.80;1.00;;;;;;5072161;28;20212;-63
2021/09/09 07:24:34;;;;;;;9.83;8.07;;;19.90;1.00;;;;;;5071809;28;20279;-63
2021/09/09 07:27:01;;;;;;;11.77;7.63;;;20.10;1.00;;;;;;5071984;28;20262;-64
2021/09/09 07:29:27;;;;;;;9.33;7.67;;;20.20;1.00;;;;;;5071699;28;20212;-63
2021/09/09 07:31:54;;;;;;;12.00;7.27;;;20.20;1.00;;;;;;5071986;28;20294;-63
2021/09/09 07:34:21;;;;;;;9.43;7.13;;;20.40;1.00;;;;;;5071800;28;20247;-64
2021/09/09 07:36:47;;;;;;;12.67;7.37;;;20.40;1.00;;;;;;5072025;28;20640;-63
2021/09/09 07:39:14;;;;;;;12.60;7.90;;;20.60;1.00;;;;;;5071887;28;20205;-64
2021/09/09 07:41:42;;;;;;;12.70;7.40;;;20.60;1.00;;;;;;5072202;28;20208;-63
2021/09/09 07:44:09;;;;;;;9.63;7.60;;;20.80;1.00;;;;;;5072058;28;20279;-63
2021/09/09 07:46:36;;;;;;;10.60;7.50;;;20.90;1.00;;;;;;5072178;28;20338;-63
2021/09/09 07:49:02;;;;;;;10.23;7.57;;;21.10;1.00;;;;;;5071733;28;20250;-63
2021/09/09 07:51:30;;;;;;;12.87;7.67;;;21.20;1.00;;;;;;5071905;28;20212;-62
2021/09/09 07:53:57;;;;;;;10.30;7.50;;;21.30;1.00;;;;;;5070776;28;20229;-63
2021/09/09 07:56:24;;;;;;;12.07;7.20;;;21.40;1.00;;;;;;5071826;28;20645;-62
2021/09/09 07:58:52;;;;;;;8.07;6.77;;;21.50;1.00;;;;;;5071108;28;20205;-62
2021/09/09 08:01:21;;;;;;;16.87;7.63;;;21.60;1.00;;;;;;5071682;28;20611;-61
2021/09/09 08:03:48;;;;;;;10.20;7.30;;;21.70;1.00;;;;;;5071220;28;20756;-62
2021/09/09 08:06:15;;;;;;;10.37;7.50;;;21.80;1.00;;;;;;5071593;28;20229;-61
2021/09/09 08:08:42;;;;;;;11.07;7.83;;;21.90;1.00;;;;;;5071229;28;20208;-62
2021/09/09 08:11:09;;;;;;;8.67;7.40;;;21.90;1.00;;;;;;5071449;28;20201;-63
2021/09/09 08:13:36;;;;;;;12.10;7.80;;;22.00;1.00;;;;;;5071203;28;20228;-62
2021/09/09 08:16:06;;;;;;;8.67;7.57;;;22.10;1.00;;;;;;5071002;28;20284;-62
2021/09/09 08:18:33;;;;;;;12.50;7.57;;;22.10;1.00;;;;;;5070760;28;20212;-64
2021/09/09 08:20:59;;;;;;;13.23;7.17;;;22.20;1.00;;;;;;5070977;28;20201;-64
2021/09/09 08:23:26;;;;;;;12.17;8.03;;;22.20;1.00;;;;;;5070550;28;20225;-64
2021/09/09 08:25:53;;;;;;;10.43;7.60;;;22.30;1.00;;;;;;5070506;28;20220;-63
2021/09/09 08:28:20;;;;;;;11.43;7.70;;;22.40;1.00;;;;;;5071397;28;20204;-63
2021/09/09 08:30:47;;;;;;;13.27;7.47;;;22.50;1.00;;;;;;5071609;28;20213;-63
2021/09/09 08:33:15;;;;;;;11.40;7.70;;;22.60;1.00;;;;;;5071047;28;20591;-62
2021/09/09 08:35:43;;;;;;;11.77;7.70;;;22.70;1.00;;;;;;5071045;28;20216;-63
2021/09/09 08:38:09;;;;;;;11.97;7.40;;;22.70;1.00;;;;;;5070555;28;20241;-65
2021/09/09 08:40:38;;;;;;;9.90;7.47;;;22.80;1.00;;;;;;5070925;28;20209;-63
2021/09/09 08:43:06;;;;;;;11.23;7.10;;;22.80;1.00;;;;;;5071246;28;20209;-63
2021/09/09 08:45:33;;;;;;;13.60;7.60;;;22.90;1.00;;;;;;5071058;28;20610;-63
2021/09/09 08:48:03;;;;;;;9.67;7.43;;;22.90;1.00;;;;;;5071094;28;20250;-63
2021/09/09 08:50:31;;;;;;;9.40;7.13;;;23.00;1.00;;;;;;5071121;28;20635;-64
2021/09/09 08:52:59;;;;;;;8.23;7.00;;;23.20;1.00;;;;;;5071115;28;20583;-64
2021/09/09 08:55:26;;;;;;;14.83;11.57;;;23.20;1.00;;;;;;5070949;28;20220;-64
2021/09/09 08:57:52;;;;;;;13.70;10.97;;;23.30;1.00;;;;;;5071074;28;20290;-65
2021/09/09 09:00:19;;;;;;;12.57;7.30;;;23.30;1.00;;;;;;5071123;28;20247;-65
2021/09/09 09:02:50;;;;;;;10.03;7.20;;;23.50;1.00;;;;;;5071046;28;20216;-65
2021/09/09 09:05:17;;;;;;;8.90;6.97;;;23.60;1.00;;;;;;5071134;28;20225;-65
2021/09/09 09:07:45;;;;;;;9.57;6.77;;;23.70;1.00;;;;;;5074339;28;20258;-62
2021/09/09 09:10:12;;;;;;;10.97;7.30;;;23.70;1.00;;;;;;5074633;28;20209;-63
2021/09/09 09:12:41;;;;;;;10.57;6.83;;;23.80;1.00;;;;;;5074693;28;20619;-63
2021/09/09 09:15:17;;;;;;;8.80;6.53;;;23.90;1.00;;;;;;5074617;28;20229;-63
2021/09/09 09:18:00;;;;;;;9.57;6.50;;;24.00;1.00;;;;;;5074187;28;20208;-63
2021/09/09 09:20:37;;;;;;;9.13;6.37;;;24.10;1.00;;;;;;5074768;28;20209;-63
2021/09/09 09:23:18;;;;;;;10.67;7.17;;;24.20;1.00;;;;;;5074289;28;20227;-63
2021/09/09 09:25:50;;;;;;;12.00;7.43;;;24.30;1.00;;;;;;5074509;28;20220;-63
2021/09/09 09:28:18;;;;;;;9.70;6.77;;;24.40;1.00;;;;;;5074301;28;20266;-63
2021/09/09 09:31:05;;;;;;;9.83;6.80;;;24.40;1.00;;;;;;5075561;28;20921;-67
2021/09/09 09:33:34;;;;;;;9.60;6.40;;;24.40;1.00;;;;;;5075315;28;20229;-64
2021/09/09 09:36:25;;;;;;;9.43;6.70;;;24.40;1.00;;;;;;5074821;28;20208;-65
2021/09/09 09:38:54;;;;;;;11.23;6.90;;;24.50;1.00;;;;;;5073862;28;20205;-66
2021/09/09 09:41:23;;;;;;;11.77;7.00;;;24.50;99.90;;;;;;5074143;28;20213;-64
2021/09/09 09:43:56;;;;;;;7.67;6.40;;;24.60;99.90;;;;;;5074173;28;20235;-63
2021/09/09 09:46:34;;;;;;;8.20;6.77;;;24.70;1.00;;;;;;5074064;28;20282;-64
2021/09/09 09:49:17;;;;;;;10.63;6.27;;;24.70;99.90;;;;;;5073695;28;20201;-63
2021/09/09 09:51:45;;;;;;;18.10;7.43;;;24.80;99.90;;;;;;5073927;28;20208;-61
2021/09/09 09:54:15;;;;;;;17.50;7.20;;;24.90;99.90;;;;;;5073744;28;20221;-64
2021/09/09 09:56:43;;;;;;;11.27;6.83;;;25.00;99.90;;;;;;5073854;28;20208;-63
2021/09/09 09:59:09;;;;;;;10.27;6.73;;;25.00;99.90;;;;;;5073819;28;20245;-65
2021/09/09 10:01:37;;;;;;;10.73;7.43;;;25.10;99.90;;;;;;5074091;28;20204;-62
2021/09/09 10:04:06;;;;;;;8.20;6.47;;;25.10;99.90;;;;;;5073711;28;20286;-63
2021/09/09 10:06:33;;;;;;;10.03;6.90;;;25.00;99.90;;;;;;5074303;28;20244;-64
2021/09/09 10:09:00;;;;;;;13.50;7.67;;;25.10;99.90;;;;;;5074221;28;20250;-64
2021/09/09 10:11:28;;;;;;;14.90;7.77;;;25.20;99.90;;;;;;5074182;28;20224;-65
2021/09/09 10:13:57;;;;;;;14.00;8.30;;;25.30;99.90;;;;;;5073364;28;20229;-65
2021/09/09 10:16:27;;;;;;;16.20;8.87;;;25.40;99.90;;;;;;5073088;28;20228;-65
2021/09/09 10:18:54;;;;;;;11.27;6.80;;;25.50;99.90;;;;;;5072506;28;20738;-65
2021/09/09 10:21:43;;;;;;;10.17;7.07;;;25.50;99.90;;;;;;5073677;28;20282;-64
2021/09/09 10:24:12;;;;;;;9.53;6.87;;;25.50;99.90;;;;;;5068571;28;20286;-63
2021/09/09 10:26:41;;;;;;;14.83;9.30;;;25.50;99.90;;;;;;5073176;28;20576;-62
2021/09/09 10:29:09;;;;;;;11.87;8.00;;;25.50;99.90;;;;;;5073095;28;20205;-62
2021/09/09 10:31:41;;;;;;;10.37;7.07;;;25.50;99.90;;;;;;5073262;28;20205;-62
2021/09/09 10:34:10;;;;;;;12.70;8.13;;;25.60;99.90;;;;;;5073099;28;20286;-63
2021/09/09 10:36:45;;;;;;;12.13;7.53;;;25.70;99.90;;;;;;5072976;28;20611;-64
2021/09/09 10:39:13;;;;;;;13.53;7.90;;;25.70;99.90;;;;;;5072630;28;20211;-65
2021/09/09 10:41:41;;;;;;;9.77;6.93;;;25.80;99.90;;;;;;5072887;28;20216;-64
2021/09/09 10:44:09;;;;;;;9.33;7.00;;;25.80;99.90;;;;;;5072923;28;20228;-63
2021/09/09 10:46:38;;;;;;;8.33;6.70;;;25.90;99.90;;;;;;5072901;28;20232;-63
2021/09/09 10:49:17;;;;;;;10.10;6.67;;;26.00;99.90;;;;;;5072695;28;20270;-63
2021/09/09 10:52:11;;;;;;;11.97;6.97;;;26.10;99.90;;;;;;5072616;28;20266;-63
2021/09/09 10:55:00;;;;;;;8.00;6.87;;;26.20;99.90;;;;;;5072751;28;20236;-62
2021/09/09 10:57:28;;;;;;;9.33;6.80;;;26.30;99.90;;;;;;5072663;28;20212;-62
2021/09/09 10:59:55;;;;;;;8.43;6.83;;;26.30;99.90;;;;;;5072345;28;20208;-61
2021/09/09 11:02:22;;;;;;;9.43;7.30;;;26.20;99.90;;;;;;5073071;28;20258;-62
2021/09/09 11:04:49;;;;;;;11.33;6.70;;;26.10;99.90;;;;;;5072259;28;20228;-63
2021/09/09 11:07:24;;;;;;;8.87;7.23;;;26.10;99.90;;;;;;5072617;28;20699;-63
2021/09/09 11:10:05;;;;;;;10.33;7.10;;;26.20;99.90;;;;;;5072284;28;20215;-64
2021/09/09 11:12:37;;;;;;;9.03;7.63;;;26.30;99.90;;;;;;5072192;28;20235;-64
2021/09/09 11:15:07;;;;;;;10.10;6.87;;;26.30;99.90;;;;;;5072312;28;20608;-65
2021/09/09 11:17:34;;;;;;;8.47;7.30;;;26.40;99.90;;;;;;5072292;28;20250;-64
2021/09/09 11:20:05;;;;;;;9.40;7.37;;;26.50;99.90;;;;;;5072394;28;20311;-64
2021/09/09 11:22:32;;;;;;;10.07;7.17;;;26.50;99.90;;;;;;5072265;28;20208;-63
2021/09/09 11:24:59;;;;;;;8.90;7.07;;;26.50;99.90;;;;;;5071640;28;20717;-65
2021/09/09 11:27:30;;;;;;;9.20;6.70;;;26.50;99.90;;;;;;5071938;28;20224;-64
2021/09/09 11:30:00;;;;;;;19.33;8.83;;;26.60;99.90;;;;;;5071957;28;20200;-64
2021/09/09 11:32:26;;;;;;;11.70;7.47;;;26.70;99.90;;;;;;5072178;28;20254;-65
2021/09/09 11:34:53;;;;;;;13.30;6.90;;;26.70;99.90;;;;;;5072063;28;20229;-64
2021/09/09 11:37:22;;;;;;;10.23;7.33;;;26.70;99.90;;;;;;5071763;28;20266;-65
2021/09/09 11:39:48;;;;;;;12.63;7.10;;;26.70;99.90;;;;;;5071696;28;20209;-64
2021/09/09 11:42:15;;;;;;;8.00;6.67;;;26.70;99.90;;;;;;5072165;28;20223;-64
2021/09/09 11:44:42;;;;;;;9.80;6.87;;;26.70;99.90;;;;;;5071468;28;20286;-63
2021/09/09 11:47:12;;;;;;;15.43;7.83;;;26.80;99.90;;;;;;5071706;28;20332;-64
2021/09/09 11:49:40;;;;;;;11.83;7.07;;;26.70;99.90;;;;;;5072095;28;20267;-65
2021/09/09 11:52:07;;;;;;;10.23;7.43;;;26.60;99.90;;;;;;5071376;28;20224;-61
2021/09/09 11:54:36;;;;;;;9.77;7.80;;;26.70;99.90;;;;;;5071525;28;20690;-62
2021/09/09 11:57:05;;;;;;;12.50;7.90;;;26.70;99.90;;;;;;5072234;28;20288;-65
2021/09/09 11:59:32;;;;;;;10.47;8.03;;;26.70;99.90;;;;;;5071786;28;20582;-65
2021/09/09 12:02:05;;;;;;;10.03;7.67;;;26.70;99.90;;;;;;5071541;28;20829;-65
2021/09/09 12:04:35;;;;;;;10.37;7.53;;;26.60;99.90;;;;;;5071450;28;20225;-64
2021/09/09 12:07:02;;;;;;;9.03;8.00;;;26.70;99.90;;;;;;5071720;28;20229;-64
2021/09/09 12:09:32;;;;;;;11.17;7.33;;;26.70;99.90;;;;;;5071529;28;20620;-65
2021/09/09 12:12:07;;;;;;;10.27;7.10;;;26.60;99.90;;;;;;5071767;28;20257;-65
2021/09/09 12:14:35;;;;;;;10.23;8.10;;;26.50;99.90;;;;;;5071355;28;20240;-65
2021/09/09 12:17:13;;;;;;;11.43;7.40;;;26.40;99.90;;;;;;5071425;28;20204;-65
2021/09/09 12:19:59;;;;;;;12.43;7.63;;;26.40;99.90;;;;;;5071445;28;20216;-65
2021/09/09 12:22:48;;;;;;;10.80;7.43;;;26.50;99.90;;;;;;5071911;28;20209;-65
2021/09/09 12:25:21;;;;;;;14.87;7.37;;;26.60;99.90;;;;;;5071377;28;20225;-66
2021/09/09 12:27:55;;;;;;;10.90;8.40;;;26.70;99.90;;;;;;5071411;28;20256;-64
2021/09/09 12:30:22;;;;;;;10.97;7.80;;;26.70;99.90;;;;;;5071091;28;20226;-65
2021/09/09 12:32:48;;;;;;;10.70;7.97;;;26.80;99.90;;;;;;5070529;28;20205;-66
2021/09/09 12:35:19;;;;;;;9.60;8.03;;;26.70;99.90;;;;;;5071323;28;20220;-65
2021/09/09 12:37:58;;;;;;;16.43;8.47;;;26.70;99.90;;;;;;5071088;28;20216;-66
2021/09/09 12:40:38;;;;;;;15.33;8.17;;;26.70;99.90;;;;;;5072469;28;20234;-66
2021/09/09 12:43:20;;;;;;;12.70;8.27;;;26.70;99.90;;;;;;5075298;28;20242;-62
2021/09/09 12:45:47;;;;;;;14.87;8.77;;;26.70;99.90;;;;;;5075104;28;20201;-63
2021/09/09 12:48:14;;;;;;;10.70;7.73;;;26.50;99.90;;;;;;5074952;28;20295;-68